sensor_id;sensor_type;location;lat;lon;timestamp;pressure;altitude;pressure_sealevel;temperature;humidity
36664;BME280;53333;51.976;20.144;2023-12-29T00:00:06;99882.47;;;5.38;65.93
36664;BME280;53333;51.976;20.144;2023-12-29T00:02:41;99872.91;;;5.32;66.10
36664;BME280;53333;51.976;20.144;2023-12-29T00:05:14;99877.50;;;5.27;66.06
36664;BME280;53333;51.976;20.144;2023-12-29T00:07:47;99872.31;;;5.24;66.16
36664;BME280;53333;51.976;20.144;2023-12-29T00:10:20;99875.94;;;5.20;66.17
36664;BME280;53333;51.976;20.144;2023-12-29T00:12:53;99866.38;;;5.16;66.31
36664;BME280;53333;51.976;20.144;2023-12-29T00:15:28;99865.66;;;5.11;66.28
36664;BME280;53333;51.976;20.144;2023-12-29T00:18:01;99860.47;;;5.07;66.30
36664;BME280;53333;51.976;20.144;2023-12-29T00:20:34;99853.50;;;5.03;66.41
36664;BME280;53333;51.976;20.144;2023-12-29T00:23:12;99853.66;;;4.99;66.58
36664;BME280;53333;51.976;20.144;2023-12-29T00:25:45;99856.38;;;4.96;66.67
36664;BME280;53333;51.976;20.144;2023-12-29T00:28:18;99857.31;;;4.95;66.63
36664;BME280;53333;51.976;20.144;2023-12-29T00:30:53;99852.06;;;4.93;66.87
36664;BME280;53333;51.976;20.144;2023-12-29T00:33:34;99849.44;;;4.93;66.79
36664;BME280;53333;51.976;20.144;2023-12-29T00:36:07;99847.69;;;4.92;66.86
36664;BME280;53333;51.976;20.144;2023-12-29T00:38:40;99851.19;;;4.93;66.74
36664;BME280;53333;51.976;20.144;2023-12-29T00:41:13;99845.91;;;4.93;66.97
36664;BME280;53333;51.976;20.144;2023-12-29T00:43:46;99849.38;;;4.95;66.84
36664;BME280;53333;51.976;20.144;2023-12-29T00:46:20;99847.63;;;4.94;67.01
36664;BME280;53333;51.976;20.144;2023-12-29T00:48:53;99847.59;;;4.95;67.15
36664;BME280;53333;51.976;20.144;2023-12-29T00:51:26;99846.63;;;4.98;67.03
36664;BME280;53333;51.976;20.144;2023-12-29T00:53:59;99837.78;;;4.99;67.04
36664;BME280;53333;51.976;20.144;2023-12-29T00:56:32;99835.88;;;5.02;67.16
36664;BME280;53333;51.976;20.144;2023-12-29T00:59:05;99831.44;;;5.04;67.20
36664;BME280;53333;51.976;20.144;2023-12-29T01:01:40;99835.75;;;5.07;67.09
36664;BME280;53333;51.976;20.144;2023-12-29T01:04:13;99831.28;;;5.09;67.09
36664;BME280;53333;51.976;20.144;2023-12-29T01:06:46;99833.00;;;5.10;67.07
36664;BME280;53333;51.976;20.144;2023-12-29T01:09:19;99829.50;;;5.09;67.10
36664;BME280;53333;51.976;20.144;2023-12-29T01:11:52;99837.50;;;5.08;67.15
36664;BME280;53333;51.976;20.144;2023-12-29T01:14:25;99830.50;;;5.05;67.24
36664;BME280;53333;51.976;20.144;2023-12-29T01:17:00;99827.91;;;5.04;67.32
36664;BME280;53333;51.976;20.144;2023-12-29T01:19:32;99820.94;;;5.01;67.29
36664;BME280;53333;51.976;20.144;2023-12-29T01:22:05;99814.84;;;4.98;67.40
36664;BME280;53333;51.976;20.144;2023-12-29T01:24:38;99819.34;;;4.96;67.47
36664;BME280;53333;51.976;20.144;2023-12-29T01:27:17;99818.53;;;4.94;67.47
36664;BME280;53333;51.976;20.144;2023-12-29T01:29:50;99815.91;;;4.92;67.54
36664;BME280;53333;51.976;20.144;2023-12-29T01:32:26;99803.72;;;4.86;67.70
36664;BME280;53333;51.976;20.144;2023-12-29T01:34:59;99796.78;;;4.84;67.60
36664;BME280;53333;51.976;20.144;2023-12-29T01:37:32;99792.44;;;4.81;67.81
36664;BME280;53333;51.976;20.144;2023-12-29T01:40:06;99790.75;;;4.79;67.80
36664;BME280;53333;51.976;20.144;2023-12-29T01:42:39;99783.78;;;4.76;67.77
36664;BME280;53333;51.976;20.144;2023-12-29T01:45:21;99779.34;;;4.77;67.89
36664;BME280;53333;51.976;20.144;2023-12-29T01:47:56;99776.88;;;4.70;67.97
36664;BME280;53333;51.976;20.144;2023-12-29T01:50:29;99783.09;;;4.69;67.95
36664;BME280;53333;51.976;20.144;2023-12-29T01:53:05;99771.78;;;4.64;67.97
36664;BME280;53333;51.976;20.144;2023-12-29T01:55:38;99770.69;;;4.71;67.43
36664;BME280;53333;51.976;20.144;2023-12-29T01:58:11;99771.13;;;4.56;67.76
36664;BME280;53333;51.976;20.144;2023-12-29T02:00:44;99769.59;;;4.49;68.03
36664;BME280;53333;51.976;20.144;2023-12-29T02:03:18;99765.34;;;4.43;68.05
36664;BME280;53333;51.976;20.144;2023-12-29T02:05:53;99760.19;;;4.39;68.34
36664;BME280;53333;51.976;20.144;2023-12-29T02:08:28;99759.44;;;4.35;68.38
36664;BME280;53333;51.976;20.144;2023-12-29T02:11:01;99760.41;;;4.32;68.41
36664;BME280;53333;51.976;20.144;2023-12-29T02:13:35;99755.16;;;4.31;68.50
36664;BME280;53333;51.976;20.144;2023-12-29T02:16:14;99742.88;;;4.28;68.55
36664;BME280;53333;51.976;20.144;2023-12-29T02:18:51;99746.56;;;4.23;68.57
36664;BME280;53333;51.976;20.144;2023-12-29T02:21:25;99744.88;;;4.20;68.72
36664;BME280;53333;51.976;20.144;2023-12-29T02:23:58;99741.44;;;4.18;68.92
36664;BME280;53333;51.976;20.144;2023-12-29T02:26:34;99744.16;;;4.15;68.81
36664;BME280;53333;51.976;20.144;2023-12-29T02:29:10;99745.97;;;4.13;68.98
36664;BME280;53333;51.976;20.144;2023-12-29T02:31:50;99740.75;;;4.10;68.88
36664;BME280;53333;51.976;20.144;2023-12-29T02:34:27;99739.09;;;4.07;68.94
36664;BME280;53333;51.976;20.144;2023-12-29T02:37:02;99737.38;;;4.05;68.99
36664;BME280;53333;51.976;20.144;2023-12-29T02:39:36;99730.34;;;4.04;69.02
36664;BME280;53333;51.976;20.144;2023-12-29T02:42:10;99729.53;;;4.02;69.17
36664;BME280;53333;51.976;20.144;2023-12-29T02:44:43;99736.69;;;3.98;69.25
36664;BME280;53333;51.976;20.144;2023-12-29T02:47:17;99727.03;;;3.97;69.25
36664;BME280;53333;51.976;20.144;2023-12-29T02:49:51;99730.66;;;3.94;69.33
36664;BME280;53333;51.976;20.144;2023-12-29T02:52:24;99719.19;;;3.94;69.45
36664;BME280;53333;51.976;20.144;2023-12-29T02:54:57;99727.13;;;3.94;69.50
36664;BME280;53333;51.976;20.144;2023-12-29T02:57:31;99719.09;;;3.97;69.55
36664;BME280;53333;51.976;20.144;2023-12-29T03:00:06;99723.50;;;3.98;69.87
36664;BME280;53333;51.976;20.144;2023-12-29T03:02:40;99724.25;;;4.02;69.84
36664;BME280;53333;51.976;20.144;2023-12-29T03:05:14;99725.06;;;4.04;69.62
36664;BME280;53333;51.976;20.144;2023-12-29T03:07:47;99723.28;;;4.06;69.62
36664;BME280;53333;51.976;20.144;2023-12-29T03:10:20;99724.94;;;4.08;69.83
36664;BME280;53333;51.976;20.144;2023-12-29T03:12:54;99719.56;;;4.11;69.82
36664;BME280;53333;51.976;20.144;2023-12-29T03:15:27;99726.56;;;4.14;69.83
36664;BME280;53333;51.976;20.144;2023-12-29T03:18:00;99725.56;;;4.18;69.79
36664;BME280;53333;51.976;20.144;2023-12-29T03:20:33;99735.97;;;4.23;69.73
36664;BME280;53333;51.976;20.144;2023-12-29T03:23:06;99726.16;;;4.28;69.79
36664;BME280;53333;51.976;20.144;2023-12-29T03:25:39;99721.63;;;4.31;69.89
36664;BME280;53333;51.976;20.144;2023-12-29T03:28:13;99724.19;;;4.34;69.87
36664;BME280;53333;51.976;20.144;2023-12-29T03:30:47;99718.81;;;4.38;69.84
36664;BME280;53333;51.976;20.144;2023-12-29T03:33:20;99722.22;;;4.41;69.67
36664;BME280;53333;51.976;20.144;2023-12-29T03:35:53;99725.69;;;4.43;69.75
36664;BME280;53333;51.976;20.144;2023-12-29T03:38:26;99722.09;;;4.46;69.67
36664;BME280;53333;51.976;20.144;2023-12-29T03:40:59;99708.81;;;4.47;69.59
36664;BME280;53333;51.976;20.144;2023-12-29T03:43:33;99707.03;;;4.48;69.44
36664;BME280;53333;51.976;20.144;2023-12-29T03:46:15;99703.44;;;4.50;69.58
36664;BME280;53333;51.976;20.144;2023-12-29T03:48:49;99707.91;;;4.48;69.60
36664;BME280;53333;51.976;20.144;2023-12-29T03:51:22;99706.22;;;4.46;69.58
36664;BME280;53333;51.976;20.144;2023-12-29T03:53:55;99708.91;;;4.44;69.62
36664;BME280;53333;51.976;20.144;2023-12-29T03:56:30;99708.94;;;4.43;69.71
36664;BME280;53333;51.976;20.144;2023-12-29T03:59:04;99701.00;;;4.43;69.63
36664;BME280;53333;51.976;20.144;2023-12-29T04:01:38;99700.06;;;4.45;69.56
36664;BME280;53333;51.976;20.144;2023-12-29T04:04:11;99695.53;;;4.49;69.72
36664;BME280;53333;51.976;20.144;2023-12-29T04:06:43;99692.75;;;4.53;69.66
36664;BME280;53333;51.976;20.144;2023-12-29T04:09:16;99699.63;;;4.59;69.59
36664;BME280;53333;51.976;20.144;2023-12-29T04:11:49;99689.78;;;4.64;69.53
36664;BME280;53333;51.976;20.144;2023-12-29T04:14:24;99686.06;;;4.70;69.51
36664;BME280;53333;51.976;20.144;2023-12-29T04:16:57;99689.34;;;4.77;69.46
36664;BME280;53333;51.976;20.144;2023-12-29T04:19:30;99687.44;;;4.82;69.50
36664;BME280;53333;51.976;20.144;2023-12-29T04:22:03;99685.53;;;4.87;69.46
36664;BME280;53333;51.976;20.144;2023-12-29T04:24:37;99675.69;;;4.90;69.55
36664;BME280;53333;51.976;20.144;2023-12-29T04:27:11;99674.72;;;4.93;69.42
36664;BME280;53333;51.976;20.144;2023-12-29T04:29:46;99681.63;;;4.97;69.17
36664;BME280;53333;51.976;20.144;2023-12-29T04:32:19;99677.97;;;5.01;69.16
36664;BME280;53333;51.976;20.144;2023-12-29T04:34:52;99679.66;;;5.04;69.08
36664;BME280;53333;51.976;20.144;2023-12-29T04:37:25;99688.41;;;5.06;69.08
36664;BME280;53333;51.976;20.144;2023-12-29T04:39:58;99683.94;;;5.08;69.05
36664;BME280;53333;51.976;20.144;2023-12-29T04:42:32;99684.78;;;5.08;68.91
36664;BME280;53333;51.976;20.144;2023-12-29T04:45:07;99676.50;;;5.19;68.74
36664;BME280;53333;51.976;20.144;2023-12-29T04:47:40;99677.78;;;5.07;68.69
36664;BME280;53333;51.976;20.144;2023-12-29T04:50:16;99677.97;;;5.01;68.98
36664;BME280;53333;51.976;20.144;2023-12-29T04:52:49;99669.22;;;4.99;69.25
36664;BME280;53333;51.976;20.144;2023-12-29T04:55:22;99670.25;;;4.95;69.15
36664;BME280;53333;51.976;20.144;2023-12-29T04:57:56;99654.47;;;4.92;69.20
36664;BME280;53333;51.976;20.144;2023-12-29T05:00:31;99655.41;;;4.89;69.38
36664;BME280;53333;51.976;20.144;2023-12-29T05:03:04;99656.31;;;4.90;69.44
36664;BME280;53333;51.976;20.144;2023-12-29T05:05:42;99658.94;;;4.90;69.41
36664;BME280;53333;51.976;20.144;2023-12-29T05:08:16;99657.97;;;4.93;69.61
36664;BME280;53333;51.976;20.144;2023-12-29T05:10:51;99659.75;;;4.92;69.62
36664;BME280;53333;51.976;20.144;2023-12-29T05:13:24;99662.34;;;4.94;69.60
36664;BME280;53333;51.976;20.144;2023-12-29T05:15:58;99651.81;;;4.92;69.72
36664;BME280;53333;51.976;20.144;2023-12-29T05:18:31;99651.88;;;4.90;69.56
36664;BME280;53333;51.976;20.144;2023-12-29T05:21:05;99657.22;;;4.89;69.69
36664;BME280;53333;51.976;20.144;2023-12-29T05:23:38;99651.06;;;4.88;69.72
36664;BME280;53333;51.976;20.144;2023-12-29T05:26:11;99656.41;;;4.87;69.83
36664;BME280;53333;51.976;20.144;2023-12-29T05:28:44;99659.06;;;4.87;69.73
36664;BME280;53333;51.976;20.144;2023-12-29T05:31:18;99659.91;;;4.87;70.02
36664;BME280;53333;51.976;20.144;2023-12-29T05:33:51;99655.50;;;4.86;69.96
36664;BME280;53333;51.976;20.144;2023-12-29T05:36:24;99659.91;;;4.87;70.06
36664;BME280;53333;51.976;20.144;2023-12-29T05:38:57;99655.47;;;4.88;69.96
36664;BME280;53333;51.976;20.144;2023-12-29T05:41:30;99645.75;;;4.88;70.01
36664;BME280;53333;51.976;20.144;2023-12-29T05:44:03;99651.06;;;4.88;70.13
36664;BME280;53333;51.976;20.144;2023-12-29T05:46:37;99651.97;;;4.87;70.06
36664;BME280;53333;51.976;20.144;2023-12-29T05:49:10;99649.31;;;4.87;70.41
36664;BME280;53333;51.976;20.144;2023-12-29T05:51:44;99640.53;;;4.87;70.22
36664;BME280;53333;51.976;20.144;2023-12-29T05:54:17;99637.88;;;4.87;70.09
36664;BME280;53333;51.976;20.144;2023-12-29T05:56:50;99640.53;;;4.87;70.18
36664;BME280;53333;51.976;20.144;2023-12-29T05:59:23;99632.59;;;4.87;70.29
36664;BME280;53333;51.976;20.144;2023-12-29T06:01:57;99633.44;;;4.87;70.37
36664;BME280;53333;51.976;20.144;2023-12-29T06:04:30;99648.38;;;4.90;70.33
36664;BME280;53333;51.976;20.144;2023-12-29T06:07:03;99641.22;;;4.92;70.18
36664;BME280;53333;51.976;20.144;2023-12-29T06:09:36;99637.63;;;4.95;70.33
36664;BME280;53333;51.976;20.144;2023-12-29T06:12:09;99632.25;;;4.96;70.39
36664;BME280;53333;51.976;20.144;2023-12-29T06:14:42;99634.84;;;4.98;70.22
36664;BME280;53333;51.976;20.144;2023-12-29T06:17:16;99626.84;;;4.99;70.58
36664;BME280;53333;51.976;20.144;2023-12-29T06:19:49;99640.88;;;5.03;70.41
36664;BME280;53333;51.976;20.144;2023-12-29T06:22:22;99641.72;;;5.03;70.32
36664;BME280;53333;51.976;20.144;2023-12-29T06:24:55;99637.22;;;5.05;70.36
36664;BME280;53333;51.976;20.144;2023-12-29T06:27:28;99634.53;;;5.07;70.45
36664;BME280;53333;51.976;20.144;2023-12-29T06:30:05;99632.78;;;5.07;70.48
36664;BME280;53333;51.976;20.144;2023-12-29T06:32:40;99641.53;;;5.09;70.47
36664;BME280;53333;51.976;20.144;2023-12-29T06:35:13;99635.13;;;5.15;70.38
36664;BME280;53333;51.976;20.144;2023-12-29T06:37:46;99628.72;;;5.22;70.50
36664;BME280;53333;51.976;20.144;2023-12-29T06:40:19;99639.03;;;5.30;70.42
36664;BME280;53333;51.976;20.144;2023-12-29T06:42:52;99644.94;;;5.38;70.27
36664;BME280;53333;51.976;20.144;2023-12-29T06:45:25;99635.81;;;5.45;70.17
36664;BME280;53333;51.976;20.144;2023-12-29T06:48:00;99633.78;;;5.54;70.11
36664;BME280;53333;51.976;20.144;2023-12-29T06:50:35;99629.06;;;5.62;70.11
36664;BME280;53333;51.976;20.144;2023-12-29T06:53:08;99627.06;;;5.69;69.91
36664;BME280;53333;51.976;20.144;2023-12-29T06:55:41;99633.00;;;5.75;69.75
36664;BME280;53333;51.976;20.144;2023-12-29T06:58:14;99630.13;;;5.81;69.63
36664;BME280;53333;51.976;20.144;2023-12-29T07:00:47;99633.38;;;5.88;69.47
36664;BME280;53333;51.976;20.144;2023-12-29T07:03:21;99617.25;;;5.94;69.40
36664;BME280;53333;51.976;20.144;2023-12-29T07:05:54;99617.06;;;6.00;69.29
36664;BME280;53333;51.976;20.144;2023-12-29T07:08:27;99610.69;;;6.05;69.14
36664;BME280;53333;51.976;20.144;2023-12-29T07:11:00;99606.94;;;6.10;69.03
36664;BME280;53333;51.976;20.144;2023-12-29T07:13:35;99597.91;;;6.16;68.87
36664;BME280;53333;51.976;20.144;2023-12-29T07:16:08;99607.44;;;6.20;68.76
36664;BME280;53333;51.976;20.144;2023-12-29T07:18:43;99601.13;;;6.24;68.68
36664;BME280;53333;51.976;20.144;2023-12-29T07:21:17;99603.59;;;6.29;68.74
36664;BME280;53333;51.976;20.144;2023-12-29T07:23:50;99592.78;;;6.33;68.44
36664;BME280;53333;51.976;20.144;2023-12-29T07:26:24;99589.94;;;6.38;68.35
36664;BME280;53333;51.976;20.144;2023-12-29T07:28:56;99574.78;;;6.42;68.18
36664;BME280;53333;51.976;20.144;2023-12-29T07:31:29;99587.91;;;6.45;68.09
36664;BME280;53333;51.976;20.144;2023-12-29T07:34:04;99580.69;;;6.48;68.13
36664;BME280;53333;51.976;20.144;2023-12-29T07:36:38;99586.78;;;6.50;67.97
36664;BME280;53333;51.976;20.144;2023-12-29T07:39:12;99577.78;;;6.54;67.88
36664;BME280;53333;51.976;20.144;2023-12-29T07:41:45;99567.97;;;6.57;67.64
36664;BME280;53333;51.976;20.144;2023-12-29T07:44:20;99568.69;;;6.60;67.59
36664;BME280;53333;51.976;20.144;2023-12-29T07:46:53;99560.66;;;6.62;67.59
36664;BME280;53333;51.976;20.144;2023-12-29T07:49:27;99586.28;;;6.63;67.45
36664;BME280;53333;51.976;20.144;2023-12-29T07:52:01;99583.69;;;6.61;67.27
36664;BME280;53333;51.976;20.144;2023-12-29T07:54:34;99574.88;;;6.61;67.28
36664;BME280;53333;51.976;20.144;2023-12-29T07:57:07;99589.13;;;6.58;67.25
36664;BME280;53333;51.976;20.144;2023-12-29T07:59:40;99590.09;;;6.55;67.28
36664;BME280;53333;51.976;20.144;2023-12-29T08:02:13;99586.66;;;6.53;67.17
36664;BME280;53333;51.976;20.144;2023-12-29T08:04:47;99592.03;;;6.52;67.29
36664;BME280;53333;51.976;20.144;2023-12-29T08:07:20;99591.19;;;6.51;67.27
36664;BME280;53333;51.976;20.144;2023-12-29T08:09:53;99584.97;;;6.51;67.24
36664;BME280;53333;51.976;20.144;2023-12-29T08:12:26;99580.56;;;6.51;67.07
36664;BME280;53333;51.976;20.144;2023-12-29T08:15:00;99575.13;;;6.54;67.18
36664;BME280;53333;51.976;20.144;2023-12-29T08:17:33;99572.34;;;6.58;66.96
36664;BME280;53333;51.976;20.144;2023-12-29T08:20:08;99577.47;;;6.62;66.97
36664;BME280;53333;51.976;20.144;2023-12-29T08:22:41;99581.75;;;6.65;66.88
36664;BME280;53333;51.976;20.144;2023-12-29T08:25:14;99573.63;;;6.69;66.80
36664;BME280;53333;51.976;20.144;2023-12-29T08:27:47;99572.56;;;6.73;66.68
36664;BME280;53333;51.976;20.144;2023-12-29T08:30:20;99583.72;;;6.82;66.63
36664;BME280;53333;51.976;20.144;2023-12-29T08:32:53;99575.44;;;6.89;66.54
36664;BME280;53333;51.976;20.144;2023-12-29T08:35:28;99570.66;;;6.98;66.34
36664;BME280;53333;51.976;20.144;2023-12-29T08:38:01;99563.22;;;7.06;66.27
36664;BME280;53333;51.976;20.144;2023-12-29T08:40:34;99561.72;;;7.19;65.99
36664;BME280;53333;51.976;20.144;2023-12-29T08:43:08;99580.25;;;7.41;65.67
36664;BME280;53333;51.976;20.144;2023-12-29T08:45:40;99575.53;;;7.67;65.36
36664;BME280;53333;51.976;20.144;2023-12-29T08:48:14;99576.84;;;7.96;64.82
36664;BME280;53333;51.976;20.144;2023-12-29T08:50:49;99565.81;;;8.23;64.20
36664;BME280;53333;51.976;20.144;2023-12-29T08:53:24;99579.22;;;8.39;64.13
36664;BME280;53333;51.976;20.144;2023-12-29T08:55:56;99578.13;;;8.62;63.58
36664;BME280;53333;51.976;20.144;2023-12-29T08:58:29;99575.09;;;8.87;62.93
36664;BME280;53333;51.976;20.144;2023-12-29T09:01:03;99574.59;;;9.14;62.51
36664;BME280;53333;51.976;20.144;2023-12-29T09:03:36;99565.66;;;9.33;62.13
36664;BME280;53333;51.976;20.144;2023-12-29T09:06:10;99580.91;;;9.47;61.85
36664;BME280;53333;51.976;20.144;2023-12-29T09:08:43;99563.22;;;9.61;61.69
36664;BME280;53333;51.976;20.144;2023-12-29T09:11:16;99565.25;;;9.90;60.91
36664;BME280;53333;51.976;20.144;2023-12-29T09:13:49;99565.25;;;10.22;60.25
36664;BME280;53333;51.976;20.144;2023-12-29T09:16:22;99560.00;;;10.52;59.67
36664;BME280;53333;51.976;20.144;2023-12-29T09:18:55;99559.78;;;10.71;59.14
36664;BME280;53333;51.976;20.144;2023-12-29T09:21:29;99551.63;;;10.88;58.64
36664;BME280;53333;51.976;20.144;2023-12-29T09:24:03;99554.06;;;11.07;58.15
36664;BME280;53333;51.976;20.144;2023-12-29T09:26:36;99550.06;;;11.29;57.49
36664;BME280;53333;51.976;20.144;2023-12-29T09:29:09;99559.84;;;11.73;56.69
36664;BME280;53333;51.976;20.144;2023-12-29T09:31:42;99558.56;;;11.93;56.21
36664;BME280;53333;51.976;20.144;2023-12-29T09:34:15;99557.78;;;12.20;55.41
36664;BME280;53333;51.976;20.144;2023-12-29T09:36:50;99547.34;;;12.70;54.51
36664;BME280;53333;51.976;20.144;2023-12-29T09:39:23;99558.28;;;13.20;53.35
36664;BME280;53333;51.976;20.144;2023-12-29T09:41:58;99550.78;;;13.63;52.72
36664;BME280;53333;51.976;20.144;2023-12-29T09:44:35;99553.28;;;14.04;51.54
36664;BME280;53333;51.976;20.144;2023-12-29T09:47:09;99547.75;;;14.42;50.74
36664;BME280;53333;51.976;20.144;2023-12-29T09:49:44;99536.16;;;14.42;50.42
36664;BME280;53333;51.976;20.144;2023-12-29T09:52:20;99544.91;;;14.57;49.72
36664;BME280;53333;51.976;20.144;2023-12-29T09:54:54;99528.41;;;14.74;49.19
36664;BME280;53333;51.976;20.144;2023-12-29T09:57:27;99528.59;;;14.95;49.01
36664;BME280;53333;51.976;20.144;2023-12-29T10:00:00;99541.78;;;14.63;49.05
36664;BME280;53333;51.976;20.144;2023-12-29T10:02:41;99539.63;;;14.07;49.75
36664;BME280;53333;51.976;20.144;2023-12-29T10:05:15;99549.06;;;13.50;50.52
36664;BME280;53333;51.976;20.144;2023-12-29T10:07:50;99543.44;;;12.88;51.61
36664;BME280;53333;51.976;20.144;2023-12-29T10:10:26;99538.72;;;12.25;52.35
36664;BME280;53333;51.976;20.144;2023-12-29T10:13:01;99540.53;;;11.68;53.40
36664;BME280;53333;51.976;20.144;2023-12-29T10:15:44;99541.66;;;11.21;54.18
36664;BME280;53333;51.976;20.144;2023-12-29T10:18:25;99545.31;;;10.89;54.82
36664;BME280;53333;51.976;20.144;2023-12-29T10:21:04;99542.31;;;10.65;55.77
36664;BME280;53333;51.976;20.144;2023-12-29T10:23:45;99540.78;;;10.61;56.10
36664;BME280;53333;51.976;20.144;2023-12-29T10:26:21;99545.88;;;10.50;56.26
36664;BME280;53333;51.976;20.144;2023-12-29T10:28:56;99539.69;;;10.33;56.74
36664;BME280;53333;51.976;20.144;2023-12-29T10:31:29;99548.81;;;10.13;57.07
36664;BME280;53333;51.976;20.144;2023-12-29T10:34:17;99539.78;;;10.00;57.61
36664;BME280;53333;51.976;20.144;2023-12-29T10:36:51;99544.16;;;9.85;57.99
36664;BME280;53333;51.976;20.144;2023-12-29T10:39:26;99547.34;;;9.76;58.18
36664;BME280;53333;51.976;20.144;2023-12-29T10:42:03;99547.75;;;9.68;58.68
36664;BME280;53333;51.976;20.144;2023-12-29T10:44:38;99552.16;;;9.69;58.50
36664;BME280;53333;51.976;20.144;2023-12-29T10:47:12;99543.06;;;9.73;58.64
36664;BME280;53333;51.976;20.144;2023-12-29T10:49:47;99545.28;;;9.81;58.37
36664;BME280;53333;51.976;20.144;2023-12-29T10:52:31;99527.41;;;9.99;58.16
36664;BME280;53333;51.976;20.144;2023-12-29T10:55:07;99535.56;;;9.96;58.12
36664;BME280;53333;51.976;20.144;2023-12-29T10:57:41;99528.06;;;10.03;58.12
36664;BME280;53333;51.976;20.144;2023-12-29T11:00:15;99524.09;;;10.10;58.15
36664;BME280;53333;51.976;20.144;2023-12-29T11:02:53;99532.56;;;10.18;58.03
36664;BME280;53333;51.976;20.144;2023-12-29T11:05:27;99526.84;;;10.24;57.92
36664;BME280;53333;51.976;20.144;2023-12-29T11:08:00;99522.03;;;10.31;57.86
36664;BME280;53333;51.976;20.144;2023-12-29T11:10:34;99521.06;;;10.32;57.69
36664;BME280;53333;51.976;20.144;2023-12-29T11:13:08;99511.34;;;10.31;57.62
36664;BME280;53333;51.976;20.144;2023-12-29T11:15:47;99520.38;;;10.28;57.70
36664;BME280;53333;51.976;20.144;2023-12-29T11:18:20;99514.19;;;10.28;57.58
36664;BME280;53333;51.976;20.144;2023-12-29T11:20:53;99510.66;;;10.27;57.71
36664;BME280;53333;51.976;20.144;2023-12-29T11:23:28;99506.09;;;10.29;57.69
36664;BME280;53333;51.976;20.144;2023-12-29T11:26:03;99490.84;;;10.31;57.49
36664;BME280;53333;51.976;20.144;2023-12-29T11:28:36;99505.69;;;10.37;57.23
36664;BME280;53333;51.976;20.144;2023-12-29T11:31:09;99488.53;;;10.41;57.23
36664;BME280;53333;51.976;20.144;2023-12-29T11:33:45;99469.41;;;10.49;56.91
36664;BME280;53333;51.976;20.144;2023-12-29T11:36:25;99484.00;;;10.58;56.69
36664;BME280;53333;51.976;20.144;2023-12-29T11:39:11;99478.88;;;10.69;56.64
36664;BME280;53333;51.976;20.144;2023-12-29T11:41:56;99474.63;;;10.81;56.32
36664;BME280;53333;51.976;20.144;2023-12-29T11:44:31;99470.41;;;10.91;56.03
36664;BME280;53333;51.976;20.144;2023-12-29T11:47:05;99463.66;;;11.00;55.61
36664;BME280;53333;51.976;20.144;2023-12-29T11:52:33;99461.09;;;11.13;55.58
36664;BME280;53333;51.976;20.144;2023-12-29T11:55:09;99461.94;;;11.13;55.40
36664;BME280;53333;51.976;20.144;2023-12-29T11:57:44;99451.16;;;11.15;55.23
36664;BME280;53333;51.976;20.144;2023-12-29T12:00:17;99458.03;;;11.19;55.12
36664;BME280;53333;51.976;20.144;2023-12-29T12:02:50;99457.84;;;11.22;55.12
36664;BME280;53333;51.976;20.144;2023-12-29T12:05:44;99466.44;;;11.27;55.10
36664;BME280;53333;51.976;20.144;2023-12-29T12:08:31;99460.25;;;11.26;54.71
36664;BME280;53333;51.976;20.144;2023-12-29T12:14:51;99455.28;;;11.20;54.85
36664;BME280;53333;51.976;20.144;2023-12-29T12:17:31;99443.81;;;11.18;54.81
36664;BME280;53333;51.976;20.144;2023-12-29T12:20:07;99438.91;;;11.54;54.60
36664;BME280;53333;51.976;20.144;2023-12-29T12:22:41;99441.03;;;12.70;52.30
36664;BME280;53333;51.976;20.144;2023-12-29T12:25:18;99436.41;;;13.87;50.06
36664;BME280;53333;51.976;20.144;2023-12-29T12:27:51;99450.41;;;14.98;50.09
36664;BME280;53333;51.976;20.144;2023-12-29T12:30:26;99456.50;;;15.34;48.43
36664;BME280;53333;51.976;20.144;2023-12-29T12:33:00;99459.16;;;16.02;46.58
36664;BME280;53333;51.976;20.144;2023-12-29T12:35:35;99457.25;;;15.82;46.43
36664;BME280;53333;51.976;20.144;2023-12-29T12:38:09;99449.69;;;15.41;46.88
36664;BME280;53333;51.976;20.144;2023-12-29T12:40:41;99456.84;;;14.96;48.24
36664;BME280;53333;51.976;20.144;2023-12-29T12:43:15;99460.16;;;14.28;48.52
36664;BME280;53333;51.976;20.144;2023-12-29T12:45:53;99443.41;;;14.01;48.99
36664;BME280;53333;51.976;20.144;2023-12-29T12:48:34;99443.28;;;14.50;47.85
36664;BME280;53333;51.976;20.144;2023-12-29T12:51:09;99443.06;;;15.12;46.93
36664;BME280;53333;51.976;20.144;2023-12-29T12:53:42;99443.41;;;15.41;46.29
36664;BME280;53333;51.976;20.144;2023-12-29T12:56:18;99444.03;;;15.56;45.64
36664;BME280;53333;51.976;20.144;2023-12-29T12:58:53;99448.56;;;15.78;45.00
36664;BME280;53333;51.976;20.144;2023-12-29T13:01:29;99443.31;;;15.76;45.17
36664;BME280;53333;51.976;20.144;2023-12-29T13:04:08;99436.22;;;15.30;45.40
36664;BME280;53333;51.976;20.144;2023-12-29T13:06:43;99450.00;;;14.92;46.35
36664;BME280;53333;51.976;20.144;2023-12-29T13:09:20;99453.53;;;14.57;46.81
36664;BME280;53333;51.976;20.144;2023-12-29T13:12:07;99448.28;;;14.20;47.24
36664;BME280;53333;51.976;20.144;2023-12-29T13:14:40;99438.78;;;13.78;48.08
36664;BME280;53333;51.976;20.144;2023-12-29T13:17:15;99439.31;;;13.47;48.34
36664;BME280;53333;51.976;20.144;2023-12-29T13:19:56;99440.63;;;13.15;49.15
36664;BME280;53333;51.976;20.144;2023-12-29T13:22:29;99438.69;;;12.92;49.43
36664;BME280;53333;51.976;20.144;2023-12-29T13:25:05;99446.84;;;12.90;49.64
36664;BME280;53333;51.976;20.144;2023-12-29T13:27:39;99449.63;;;12.88;49.48
36664;BME280;53333;51.976;20.144;2023-12-29T13:30:13;99456.81;;;12.75;49.53
36664;BME280;53333;51.976;20.144;2023-12-29T13:32:51;99458.69;;;12.60;49.95
36664;BME280;53333;51.976;20.144;2023-12-29T13:35:33;99459.75;;;12.45;50.44
36664;BME280;53333;51.976;20.144;2023-12-29T13:38:10;99460.88;;;12.28;50.87
36664;BME280;53333;51.976;20.144;2023-12-29T13:40:55;99452.59;;;12.18;51.07